Etusivu
METAR-TAF:

METAR-TAF

Lentoasemat :

St. Michael, Alaska, Yhdysvallat

Leveyspiiri: 63-29-24N, Pituuspiiri: 162-06-37W, korkeus merenpinnasta: 30 m

Tämänhetkinen sää

Tämä raportti tehtiin 33 minuuttia sitten, kello 06.56 UTC
Tuuli 11 kn pohjoisesta
Lämpötila 10°C
Kosteus 82%
Ilmanpaine 996 hPa
Näkyvyys: 16.1 km
Pilvistä 3500 ft:n korkeudessa
heikkoa sadetta

METAR: PAMK 140656Z AUTO 35011KT 10SM -RA OVC035 10/07 A2942 RMK AO2 SLP963 P0000 T01000072

Aika: 23:29 (07:29 UTC)


TAF: puuttuu

Säähavainnot ja -ennusteet yli 4000 lentoasemalta (METAR- ja TAF-raportit).

Käytössä olevat sääasemat on merkitty karttaan keltaisilla ja punaisilla pisteillä.

Aseta hiiri pisteen päälle nähdäksesi sääaseman nimen.

Klikkaa sitten nähdäksesi säähavainnot ja -ennusteet.

Kartan vaihtaminen: klikkaa mustalla rastilla varustettuja vihreitä pisteitä, niin voit zoomata sisään; viivalla varustettua vihreää pistettä, niin voit zoomata ulos tai vihreitä nuolia, niin pääset viereisille kartoille.


METAR-TAF: